createdAt,value
2023-04-19T00:01:43.620Z,19.88
2023-04-19T00:04:10.850Z,16.73
2023-04-19T00:06:37.904Z,16.88
2023-04-19T00:09:05.365Z,17.95
2023-04-19T00:11:33.186Z,14.80
2023-04-19T00:14:00.504Z,16.63
2023-04-19T00:16:27.536Z,14.60
2023-04-19T00:18:54.497Z,16.27
2023-04-19T00:21:21.530Z,16.52
2023-04-19T00:23:48.445Z,17.23
2023-04-19T00:26:18.096Z,18.33
2023-04-19T00:28:49.737Z,20.95
2023-04-19T00:31:16.869Z,15.73
2023-04-19T00:33:43.937Z,14.38
2023-04-19T00:36:10.984Z,16.98
2023-04-19T00:38:39.175Z,19.30
2023-04-19T00:41:06.202Z,19.40
2023-04-19T00:43:33.203Z,18.10
2023-04-19T00:46:01.108Z,14.75
2023-04-19T00:48:28.798Z,20.27
2023-04-19T00:50:56.030Z,20.15
2023-04-19T00:53:22.949Z,18.20
2023-04-19T00:55:53.189Z,17.50
2023-04-19T00:58:20.201Z,19.58
2023-04-19T01:00:48.168Z,16.52
2023-04-19T01:03:17.089Z,15.25
2023-04-19T01:05:44.145Z,16.55
2023-04-19T01:08:13.101Z,16.63
2023-04-19T01:10:40.187Z,15.45
2023-04-19T01:13:08.871Z,17.42
2023-04-19T01:15:38.125Z,17.55
2023-04-19T01:18:05.479Z,16.25
2023-04-19T01:20:32.523Z,15.68
2023-04-19T01:22:59.524Z,17.45
2023-04-19T01:25:27.771Z,16.45
2023-04-19T01:27:54.710Z,17.08
2023-04-19T01:30:24.086Z,19.42
2023-04-19T01:32:51.038Z,18.95
2023-04-19T01:35:18.206Z,16.50
2023-04-19T01:37:45.170Z,16.67
2023-04-19T01:40:12.613Z,16.33
2023-04-19T01:42:39.589Z,17.10
2023-04-19T01:45:07.045Z,19.83
2023-04-19T01:47:33.990Z,17.42
2023-04-19T01:50:02.619Z,16.27
2023-04-19T01:52:29.724Z,17.17
2023-04-19T01:54:56.641Z,16.70
2023-04-19T01:57:23.585Z,15.85
2023-04-19T01:59:51.500Z,20.00
2023-04-19T02:02:18.603Z,16.35
2023-04-19T02:04:45.781Z,17.80
2023-04-19T02:07:12.777Z,16.17
2023-04-19T02:09:39.788Z,19.60
2023-04-19T02:12:07.154Z,19.40
2023-04-19T02:14:35.181Z,18.05
2023-04-19T02:17:02.233Z,17.88
2023-04-19T02:19:29.190Z,18.17
2023-04-19T02:21:57.825Z,17.23
2023-04-19T02:24:25.400Z,18.35
2023-04-19T02:26:52.476Z,17.17
2023-04-19T02:29:19.481Z,17.00
2023-04-19T02:31:46.661Z,17.33
2023-04-19T02:34:14.020Z,15.73
2023-04-19T02:36:41.218Z,17.13
2023-04-19T02:39:08.502Z,18.08
2023-04-19T02:41:38.217Z,17.48
2023-04-19T02:44:05.542Z,21.30
2023-04-19T02:46:32.589Z,17.73
2023-04-19T02:49:01.250Z,17.48
2023-04-19T02:51:28.341Z,15.20
2023-04-19T02:53:55.557Z,16.15
2023-04-19T02:56:22.507Z,17.33
2023-04-19T02:58:49.580Z,14.77
2023-04-19T03:01:16.665Z,16.88
2023-04-19T03:03:43.688Z,16.23
2023-04-19T03:06:11.157Z,14.98
2023-04-19T03:08:47.582Z,19.63
2023-04-19T03:11:17.276Z,19.38
2023-04-19T03:13:44.400Z,17.00
2023-04-19T03:16:13.188Z,16.95
2023-04-19T03:18:41.381Z,18.23
2023-04-19T03:21:09.639Z,17.17
2023-04-19T03:23:46.473Z,14.45
2023-04-19T03:26:14.274Z,17.13
2023-04-19T03:28:45.504Z,16.38
2023-04-19T03:31:27.706Z,15.50
2023-04-19T03:33:54.858Z,13.70
2023-04-19T03:36:27.246Z,15.27
2023-04-19T03:38:54.274Z,14.93
2023-04-19T03:41:26.871Z,15.63
2023-04-19T03:44:10.375Z,14.43
2023-04-19T03:46:38.584Z,14.90
2023-04-19T03:49:06.151Z,15.40
2023-04-19T03:51:33.459Z,14.63
2023-04-19T03:54:00.936Z,15.68
2023-04-19T03:56:29.316Z,15.57
2023-04-19T03:58:56.525Z,14.82
2023-04-19T04:01:24.400Z,12.68
2023-04-19T04:03:53.290Z,16.63
2023-04-19T04:06:20.692Z,15.70
2023-04-19T04:08:47.924Z,14.57
2023-04-19T04:11:15.166Z,16.90
2023-04-19T04:13:43.323Z,16.48
2023-04-19T04:16:20.775Z,15.07
2023-04-19T04:18:49.056Z,15.38
2023-04-19T04:21:16.287Z,14.60
2023-04-19T04:23:47.234Z,14.85
2023-04-19T04:26:22.018Z,14.57
2023-04-19T04:29:03.969Z,15.45
2023-04-19T04:31:32.037Z,15.05
2023-04-19T04:33:59.312Z,15.75
2023-04-19T04:36:26.344Z,14.35
2023-04-19T04:38:54.627Z,15.27
2023-04-19T04:41:22.887Z,15.95
2023-04-19T04:44:04.602Z,14.38
2023-04-19T04:46:38.268Z,18.08
2023-04-19T04:49:06.565Z,16.02
2023-04-19T04:51:34.348Z,16.90
2023-04-19T04:54:01.425Z,15.65
2023-04-19T04:56:29.065Z,16.23
2023-04-19T04:58:57.135Z,16.52
2023-04-19T05:01:30.667Z,16.33
2023-04-19T05:04:00.370Z,13.63
2023-04-19T05:06:27.436Z,16.48
2023-04-19T05:08:54.589Z,14.63
2023-04-19T05:11:30.391Z,16.55
2023-04-19T05:13:57.649Z,14.45
2023-04-19T05:16:25.792Z,14.10
2023-04-19T05:18:53.322Z,18.08
2023-04-19T05:21:21.850Z,28.80
2023-04-19T05:23:48.904Z,21.30
2023-04-19T05:26:16.183Z,22.33
2023-04-19T05:28:45.476Z,22.52
2023-04-19T05:31:21.173Z,17.58
2023-04-19T05:34:11.472Z,22.27
2023-04-19T05:36:38.569Z,20.75
2023-04-19T05:39:05.879Z,26.73
2023-04-19T05:41:33.033Z,25.60
2023-04-19T05:44:00.039Z,18.17
2023-04-19T05:46:27.243Z,23.23
2023-04-19T05:48:56.125Z,18.52
2023-04-19T05:51:41.449Z,23.45
2023-04-19T05:54:14.696Z,22.48
2023-04-19T05:56:45.470Z,22.42
2023-04-19T05:59:14.144Z,22.00
2023-04-19T06:01:41.430Z,18.13
2023-04-19T06:04:08.716Z,19.77
2023-04-19T06:06:38.160Z,20.88
2023-04-19T06:09:07.188Z,18.67
2023-04-19T06:11:42.869Z,24.17
2023-04-19T06:14:14.836Z,20.05
2023-04-19T06:16:42.658Z,19.45
2023-04-19T06:19:09.714Z,19.50
2023-04-19T06:21:36.897Z,21.63
2023-04-19T06:24:04.527Z,19.17
2023-04-19T06:26:31.444Z,18.23
2023-04-19T06:28:58.499Z,17.92
2023-04-19T06:31:25.605Z,20.73
2023-04-19T06:33:52.608Z,23.95
2023-04-19T06:36:20.064Z,17.10
2023-04-19T06:38:47.033Z,18.90
2023-04-19T06:41:14.043Z,22.95
2023-04-19T06:43:42.784Z,17.52
2023-04-19T06:46:10.063Z,15.25
2023-04-19T06:48:37.257Z,22.13
2023-04-19T06:51:04.392Z,21.77
2023-04-19T06:53:31.392Z,20.35
2023-04-19T06:56:04.278Z,22.17
2023-04-19T06:58:35.500Z,16.38
2023-04-19T07:01:04.645Z,15.85
2023-04-19T07:03:32.456Z,16.55
2023-04-19T07:05:59.590Z,17.60
2023-04-19T07:08:34.901Z,16.75
2023-04-19T07:11:09.716Z,16.05
2023-04-19T07:13:37.102Z,17.98
2023-04-19T07:16:08.070Z,17.48
2023-04-19T07:18:35.171Z,16.63
2023-04-19T07:21:02.336Z,15.88
2023-04-19T07:23:30.905Z,15.32
2023-04-19T07:25:57.947Z,17.63
2023-04-19T07:28:24.977Z,20.70
2023-04-19T07:30:51.895Z,16.80
2023-04-19T07:33:18.928Z,13.00
2023-04-19T07:35:46.092Z,15.38
2023-04-19T07:38:13.118Z,14.77
2023-04-19T07:40:40.154Z,14.93
2023-04-19T07:43:07.078Z,15.23
2023-04-19T07:45:34.021Z,13.30
2023-04-19T07:48:01.107Z,16.42
2023-04-19T07:50:28.156Z,15.80
2023-04-19T07:52:56.750Z,16.15
2023-04-19T07:55:23.814Z,19.52
2023-04-19T07:57:50.777Z,14.63
2023-04-19T08:00:18.968Z,16.00
2023-04-19T08:02:47.288Z,15.02
2023-04-19T08:05:17.634Z,13.45
2023-04-19T08:07:45.834Z,18.08
2023-04-19T08:10:14.986Z,12.85
2023-04-19T08:12:57.047Z,13.40
2023-04-19T08:16:14.863Z,14.90
2023-04-19T08:18:16.198Z,12.63
2023-04-19T08:20:43.197Z,12.82
2023-04-19T08:23:22.374Z,13.32
2023-04-19T08:25:51.522Z,15.90
2023-04-19T08:28:19.396Z,14.13
2023-04-19T08:30:46.487Z,13.82
2023-04-19T08:33:13.568Z,15.18
2023-04-19T08:35:41.558Z,12.70
2023-04-19T08:38:09.105Z,13.88
2023-04-19T08:40:39.262Z,14.90
2023-04-19T08:43:07.251Z,14.63
2023-04-19T08:45:35.773Z,12.10
2023-04-19T08:48:04.200Z,14.63
2023-04-19T08:50:38.908Z,11.30
2023-04-19T08:53:24.730Z,12.60
2023-04-19T08:56:10.664Z,10.25
2023-04-19T09:01:33.086Z,14.05
2023-04-19T09:04:34.054Z,14.65
2023-04-19T09:06:55.911Z,14.25
2023-04-19T09:11:55.309Z,10.13
2023-04-19T09:14:23.471Z,10.63
2023-04-19T09:16:52.270Z,11.13
2023-04-19T09:19:24.841Z,14.73
2023-04-19T09:21:54.434Z,10.32
2023-04-19T09:25:14.500Z,12.93
2023-04-19T09:27:34.253Z,10.20
2023-04-19T09:30:03.354Z,12.80
2023-04-19T09:32:49.054Z,12.13
2023-04-19T09:35:16.602Z,13.27
2023-04-19T09:38:05.396Z,9.95
2023-04-19T09:40:34.180Z,10.30
2023-04-19T09:45:46.479Z,9.52
2023-04-19T09:48:14.084Z,9.77
2023-04-19T09:51:03.769Z,13.55
2023-04-19T09:53:35.039Z,9.93
2023-04-19T09:56:04.186Z,9.40
2023-04-19T10:01:13.961Z,12.70
2023-04-19T10:03:45.575Z,9.85
2023-04-19T10:06:39.968Z,15.25
2023-04-19T10:09:05.262Z,10.68
2023-04-19T10:11:40.272Z,12.32
2023-04-19T10:14:11.742Z,10.40
2023-04-19T10:16:39.491Z,9.68
2023-04-19T10:19:10.958Z,9.07
2023-04-19T10:21:39.693Z,12.95
2023-04-19T10:24:07.354Z,12.43
2023-04-19T10:27:04.980Z,9.18
2023-04-19T10:30:00.872Z,9.20
2023-04-19T10:32:39.170Z,12.45
2023-04-19T10:35:20.561Z,7.82
2023-04-19T10:38:09.008Z,10.48
2023-04-19T10:40:56.645Z,8.82
2023-04-19T10:43:25.370Z,9.32
2023-04-19T10:45:52.882Z,10.80
2023-04-19T10:48:33.262Z,9.90
2023-04-19T10:51:20.461Z,7.15
2023-04-19T10:54:01.860Z,8.90
2023-04-19T10:56:34.827Z,8.05
2023-04-19T10:59:07.901Z,10.88
2023-04-19T11:01:45.682Z,7.70
2023-04-19T11:04:16.654Z,6.97
2023-04-19T11:06:53.191Z,6.82
2023-04-19T11:09:28.898Z,19.83
2023-04-19T11:12:10.725Z,7.00
2023-04-19T11:14:43.299Z,10.70
2023-04-19T11:17:28.041Z,10.90
2023-04-19T11:19:59.206Z,8.65
2023-04-19T11:22:46.783Z,9.68
2023-04-19T11:25:20.078Z,8.20
2023-04-19T11:27:49.526Z,19.05
2023-04-19T11:30:22.774Z,19.10
2023-04-19T11:32:54.818Z,7.78
2023-04-19T11:35:24.087Z,9.82
2023-04-19T11:37:51.426Z,9.23
2023-04-19T11:40:20.515Z,7.90
2023-04-19T11:42:53.420Z,7.97
2023-04-19T11:45:38.538Z,10.27
2023-04-19T11:48:08.371Z,8.90
2023-04-19T11:50:45.842Z,8.88
2023-04-19T11:53:21.757Z,18.95
2023-04-19T11:55:53.502Z,7.05
2023-04-19T11:58:29.516Z,7.82
2023-04-19T12:01:04.857Z,9.38
2023-04-19T12:03:32.524Z,6.57
2023-04-19T12:06:04.396Z,9.20
2023-04-19T12:08:36.584Z,9.40
2023-04-19T12:11:05.063Z,6.07
2023-04-19T12:13:33.142Z,7.53
2023-04-19T12:16:00.426Z,7.97
2023-04-19T12:18:27.598Z,9.43
2023-04-19T12:20:55.008Z,11.88
2023-04-19T12:23:22.143Z,10.18
2023-04-19T12:25:50.061Z,8.05
2023-04-19T12:28:17.225Z,6.85
2023-04-19T12:30:44.612Z,7.25
2023-04-19T12:33:11.740Z,5.30
2023-04-19T12:35:39.658Z,10.55
2023-04-19T12:38:06.700Z,10.35
2023-04-19T12:40:35.604Z,6.95
2023-04-19T12:43:02.505Z,6.50
2023-04-19T12:45:29.643Z,8.27
2023-04-19T12:47:57.083Z,11.15
2023-04-19T12:50:24.277Z,9.68
2023-04-19T12:52:53.685Z,6.72
2023-04-19T12:55:20.846Z,4.78
2023-04-19T12:57:47.886Z,5.70
2023-04-19T13:00:15.986Z,8.00
2023-04-19T13:02:43.365Z,8.52
2023-04-19T13:05:13.008Z,10.02
2023-04-19T13:07:40.425Z,6.25
2023-04-19T13:10:08.002Z,4.45
2023-04-19T13:12:35.800Z,5.20
2023-04-19T13:15:04.510Z,7.15
2023-04-19T13:17:32.169Z,8.88
2023-04-19T13:19:59.202Z,4.80
2023-04-19T13:22:26.840Z,7.00
2023-04-19T13:24:53.826Z,6.28
2023-04-19T13:27:21.029Z,11.45
2023-04-19T13:29:48.108Z,9.02
2023-04-19T13:32:15.125Z,5.38
2023-04-19T13:34:42.067Z,16.30
2023-04-19T13:37:09.182Z,6.50
2023-04-19T13:39:37.301Z,5.60
2023-04-19T13:42:04.650Z,5.05
2023-04-19T13:44:31.905Z,8.27
2023-04-19T13:46:59.192Z,4.55
2023-04-19T13:49:26.526Z,4.28
2023-04-19T13:51:53.550Z,4.47
2023-04-19T13:54:21.316Z,4.55
2023-04-19T13:56:51.359Z,7.43
2023-04-19T13:59:19.263Z,11.98
2023-04-19T14:01:46.237Z,5.20
2023-04-19T14:04:13.524Z,11.93
2023-04-19T14:06:41.575Z,6.63
2023-04-19T14:09:08.776Z,9.20
2023-04-19T14:11:37.792Z,5.90
2023-04-19T14:14:04.738Z,4.45
2023-04-19T14:16:31.665Z,5.85
2023-04-19T14:18:58.856Z,4.20
2023-04-19T14:21:28.255Z,5.97
2023-04-19T14:23:55.901Z,5.13
2023-04-19T14:26:24.290Z,5.20
2023-04-19T14:28:52.404Z,4.63
2023-04-19T14:31:19.503Z,4.78
2023-04-19T14:33:46.504Z,3.70
2023-04-19T14:36:13.486Z,4.47
2023-04-19T14:38:40.619Z,2.65
2023-04-19T14:41:07.806Z,2.50
2023-04-19T14:43:34.980Z,3.88
2023-04-19T14:46:02.015Z,3.22
2023-04-19T14:48:29.333Z,3.90
2023-04-19T14:50:56.286Z,3.35
2023-04-19T14:53:23.418Z,5.40
2023-04-19T14:55:50.409Z,7.97
2023-04-19T14:58:17.958Z,4.70
2023-04-19T15:00:44.956Z,3.70
2023-04-19T15:03:12.499Z,2.65
2023-04-19T15:05:39.605Z,4.95
2023-04-19T15:08:09.104Z,2.50
2023-04-19T15:10:41.880Z,3.13
2023-04-19T15:13:09.621Z,2.85
2023-04-19T15:15:36.734Z,6.47
2023-04-19T15:18:03.831Z,3.15
2023-04-19T15:20:31.533Z,2.53
2023-04-19T15:22:58.607Z,3.22
2023-04-19T15:25:26.162Z,2.58
2023-04-19T15:27:53.256Z,5.63
2023-04-19T15:30:20.782Z,5.90
2023-04-19T15:32:47.757Z,2.50
2023-04-19T15:35:14.915Z,5.90
2023-04-19T15:37:43.804Z,2.83
2023-04-19T15:40:12.664Z,3.60
2023-04-19T15:42:40.205Z,2.60
2023-04-19T15:45:07.912Z,4.32
2023-04-19T15:47:35.482Z,3.65
2023-04-19T15:50:04.161Z,4.05
2023-04-19T15:52:31.277Z,3.70
2023-04-19T15:54:58.265Z,2.90
2023-04-19T15:57:25.684Z,5.07
2023-04-19T15:59:52.954Z,2.00
2023-04-19T16:02:20.129Z,4.03
2023-04-19T16:04:48.526Z,2.58
2023-04-19T16:07:16.610Z,2.70
2023-04-19T16:09:43.675Z,8.02
2023-04-19T16:12:10.592Z,4.75
2023-04-19T16:14:37.967Z,6.70
2023-04-19T16:17:08.458Z,2.05
2023-04-19T16:19:38.110Z,2.30
2023-04-19T16:22:05.536Z,2.85
2023-04-19T16:24:32.609Z,4.43
2023-04-19T16:26:59.581Z,6.57
2023-04-19T16:29:27.290Z,4.20
2023-04-19T16:31:54.283Z,1.77
2023-04-19T16:34:21.295Z,2.25
2023-04-19T16:36:48.323Z,1.83
2023-04-19T16:39:15.963Z,3.83
2023-04-19T16:41:43.929Z,2.08
2023-04-19T16:44:11.922Z,7.82
2023-04-19T16:46:39.159Z,2.33
2023-04-19T16:49:06.129Z,2.50
2023-04-19T16:51:33.171Z,2.65
2023-04-19T16:54:00.260Z,4.65
2023-04-19T16:56:27.186Z,4.15
2023-04-19T16:58:56.485Z,3.58
2023-04-19T17:01:23.910Z,12.20
2023-04-19T17:03:51.310Z,2.28
2023-04-19T17:06:18.465Z,2.03
2023-04-19T17:08:45.431Z,2.95
2023-04-19T17:11:12.540Z,3.30
2023-04-19T17:13:40.078Z,4.47
2023-04-19T17:16:07.592Z,2.33
2023-04-19T17:18:34.782Z,2.83
2023-04-19T17:21:02.494Z,10.50
2023-04-19T17:23:29.496Z,7.50
2023-04-19T17:25:56.570Z,4.15
2023-04-19T17:28:23.546Z,4.53
2023-04-19T17:30:50.616Z,6.85
2023-04-19T17:33:17.630Z,6.38
2023-04-19T17:35:44.862Z,5.93
2023-04-19T17:38:12.601Z,4.82
2023-04-19T17:40:39.613Z,4.57
2023-04-19T17:43:06.721Z,4.15
2023-04-19T17:45:34.313Z,4.72
2023-04-19T17:48:02.245Z,5.20
2023-04-19T17:50:30.081Z,3.83
2023-04-19T17:52:57.814Z,3.05
2023-04-19T17:55:25.669Z,3.30
2023-04-19T17:57:52.666Z,5.82
2023-04-19T18:00:19.941Z,4.07
2023-04-19T18:02:48.782Z,4.82
2023-04-19T18:05:15.948Z,7.50
2023-04-19T18:07:42.932Z,8.77
2023-04-19T18:10:10.569Z,5.65
2023-04-19T18:12:37.749Z,5.57
2023-04-19T18:15:06.411Z,4.35
2023-04-19T18:17:33.522Z,5.28
2023-04-19T18:20:02.034Z,5.07
2023-04-19T18:22:29.045Z,4.18
2023-04-19T18:24:56.931Z,6.45
2023-04-19T18:27:23.947Z,5.55
2023-04-19T18:29:52.338Z,4.53
2023-04-19T18:32:19.627Z,6.55
2023-04-19T18:34:47.425Z,6.32
2023-04-19T18:37:17.706Z,4.30
2023-04-19T18:39:45.460Z,6.22
2023-04-19T18:42:12.666Z,6.60
2023-04-19T18:44:52.862Z,4.28
2023-04-19T18:47:22.060Z,8.00
2023-04-19T18:50:02.772Z,4.32
2023-04-19T18:52:33.055Z,4.80
2023-04-19T18:55:06.382Z,5.85
2023-04-19T18:57:35.468Z,4.47
2023-04-19T19:00:06.021Z,4.80
2023-04-19T19:02:34.446Z,4.88
2023-04-19T19:05:02.512Z,5.10
2023-04-19T19:10:02.513Z,5.57
2023-04-19T19:12:36.615Z,7.30
2023-04-19T19:15:04.460Z,4.60
2023-04-19T19:17:32.100Z,5.13
2023-04-19T19:19:59.134Z,4.82
2023-04-19T19:22:29.009Z,5.82
2023-04-19T19:24:56.780Z,5.45
2023-04-19T19:27:24.037Z,4.93
2023-04-19T19:29:51.004Z,6.75
2023-04-19T19:32:22.116Z,6.50
2023-04-19T19:37:20.393Z,5.47
2023-04-19T19:39:47.317Z,5.90
2023-04-19T19:42:31.595Z,7.85
2023-04-19T19:45:02.337Z,4.32
2023-04-19T19:47:31.661Z,8.00
2023-04-19T19:52:32.049Z,7.35
2023-04-19T19:55:00.059Z,6.63
2023-04-19T20:00:12.994Z,6.90
2023-04-19T20:02:55.068Z,10.10
2023-04-19T20:05:23.939Z,8.27
2023-04-19T20:10:21.279Z,4.60
2023-04-19T20:12:48.535Z,4.22
2023-04-19T20:15:15.946Z,4.90
2023-04-19T20:17:43.805Z,5.47
2023-04-19T20:20:11.722Z,4.97
2023-04-19T20:22:38.804Z,8.05
2023-04-19T20:25:06.626Z,11.48
2023-04-19T20:27:34.083Z,18.90
2023-04-19T20:30:01.213Z,12.18
2023-04-19T20:32:28.347Z,21.52
2023-04-19T20:34:55.569Z,7.90
2023-04-19T20:37:22.611Z,19.15
2023-04-19T20:39:49.799Z,10.63
2023-04-19T20:42:16.849Z,5.70
2023-04-19T20:44:44.480Z,4.25
2023-04-19T20:47:13.264Z,5.60
2023-04-19T20:49:41.150Z,5.30
2023-04-19T20:52:08.205Z,5.22
2023-04-19T20:54:36.615Z,5.20
2023-04-19T20:57:04.695Z,4.63
2023-04-19T20:59:31.941Z,3.88
2023-04-19T21:02:00.215Z,5.95
2023-04-19T21:04:27.484Z,4.15
2023-04-19T21:06:54.681Z,4.82
2023-04-19T21:09:21.727Z,3.20
2023-04-19T21:11:48.918Z,5.07
2023-04-19T21:14:15.914Z,3.20
2023-04-19T21:16:42.832Z,3.33
2023-04-19T21:19:09.991Z,4.82
2023-04-19T21:21:37.011Z,3.30
2023-04-19T21:24:04.205Z,4.03
2023-04-19T21:26:31.159Z,6.35
2023-04-19T21:28:58.121Z,7.32
2023-04-19T21:31:25.525Z,2.80
2023-04-19T21:33:52.674Z,4.47
2023-04-19T21:36:19.619Z,8.40
2023-04-19T21:38:47.002Z,3.17
2023-04-19T21:41:13.940Z,3.28
2023-04-19T21:43:43.554Z,5.70
2023-04-19T21:46:10.701Z,3.25
2023-04-19T21:48:37.710Z,5.47
2023-04-19T21:51:04.999Z,4.60
2023-04-19T21:53:32.150Z,3.15
2023-04-19T21:55:59.062Z,2.45
2023-04-19T21:58:26.039Z,9.25
2023-04-19T22:00:53.743Z,6.03
2023-04-19T22:03:21.113Z,3.40
2023-04-19T22:05:48.173Z,2.53
2023-04-19T22:08:18.045Z,3.00
2023-04-19T22:10:46.381Z,4.32
2023-04-19T22:13:14.013Z,3.42
2023-04-19T22:15:41.079Z,4.25
2023-04-19T22:18:08.714Z,4.13
2023-04-19T22:20:35.888Z,5.22
2023-04-19T22:23:02.814Z,3.60
2023-04-19T22:25:30.014Z,6.07
2023-04-19T22:27:56.943Z,3.33
2023-04-19T22:30:24.058Z,3.53
2023-04-19T22:32:51.219Z,3.60
2023-04-19T22:35:19.122Z,5.57
2023-04-19T22:37:47.645Z,4.68
2023-04-19T22:40:14.660Z,3.85
2023-04-19T22:42:41.583Z,3.25
2023-04-19T22:45:09.223Z,5.10
2023-04-19T22:47:37.398Z,3.30
2023-04-19T22:50:05.153Z,3.63
2023-04-19T22:52:32.196Z,3.95
2023-04-19T22:54:59.131Z,5.40
2023-04-19T22:57:26.188Z,3.78
2023-04-19T22:59:53.093Z,8.30
2023-04-19T23:02:20.023Z,3.70
2023-04-19T23:04:49.193Z,3.95
2023-04-19T23:07:16.239Z,3.83
2023-04-19T23:09:43.277Z,3.75
2023-04-19T23:12:10.222Z,3.80
2023-04-19T23:14:38.861Z,2.92
2023-04-19T23:17:06.137Z,4.25
2023-04-19T23:19:33.223Z,6.70
2023-04-19T23:22:00.343Z,3.65
2023-04-19T23:24:27.299Z,5.30
2023-04-19T23:26:54.272Z,3.75
2023-04-19T23:29:21.376Z,4.55
2023-04-19T23:31:48.458Z,8.05
2023-04-19T23:34:16.607Z,4.65
2023-04-19T23:36:43.666Z,3.80
2023-04-19T23:39:10.810Z,4.00
2023-04-19T23:41:37.838Z,3.53
2023-04-19T23:44:04.893Z,4.70
2023-04-19T23:46:31.903Z,4.25
2023-04-19T23:48:58.861Z,4.45
2023-04-19T23:51:25.944Z,4.15
2023-04-19T23:53:52.846Z,5.80
2023-04-19T23:56:19.833Z,4.47
2023-04-19T23:58:46.743Z,3.63
